createdAt,value
2022-09-29T00:01:11.505Z,91.64
2022-09-29T00:03:39.647Z,91.39
2022-09-29T00:06:13.522Z,91.56
2022-09-29T00:08:44.221Z,90.62
2022-09-29T00:11:15.560Z,90.29
2022-09-29T00:13:43.556Z,89.67
2022-09-29T00:16:12.397Z,89.45
2022-09-29T00:18:41.148Z,89.25
2022-09-29T00:21:11.360Z,89.04
2022-09-29T00:23:39.756Z,88.76
2022-09-29T00:26:09.455Z,88.60
2022-09-29T00:28:41.413Z,88.12
2022-09-29T00:31:12.388Z,87.95
2022-09-29T00:33:41.342Z,87.67
2022-09-29T00:36:12.673Z,87.53
2022-09-29T00:38:41.912Z,87.31
2022-09-29T00:41:18.202Z,87.44
2022-09-29T00:44:05.290Z,87.51
2022-09-29T00:46:39.170Z,87.53
2022-09-29T00:49:14.334Z,87.82
2022-09-29T00:51:46.342Z,87.98
2022-09-29T00:54:16.261Z,87.97
2022-09-29T00:56:46.304Z,88.11
2022-09-29T00:59:19.693Z,88.09
2022-09-29T01:01:48.390Z,87.91
2022-09-29T01:04:20.134Z,87.92
2022-09-29T01:06:51.517Z,87.55
2022-09-29T01:09:21.896Z,87.50
2022-09-29T01:11:52.404Z,87.50
2022-09-29T01:14:23.350Z,87.74
2022-09-29T01:16:51.675Z,87.74
2022-09-29T01:19:31.208Z,87.72
2022-09-29T01:22:09.821Z,88.03
2022-09-29T01:24:56.072Z,88.20
2022-09-29T01:27:34.735Z,88.34
2022-09-29T01:30:22.318Z,88.54
2022-09-29T01:33:21.605Z,89.28
2022-09-29T01:35:58.792Z,90.29
2022-09-29T01:38:39.188Z,91.07
2022-09-29T01:41:11.778Z,90.59
2022-09-29T01:43:46.936Z,90.77
2022-09-29T01:46:21.614Z,91.70
2022-09-29T01:48:54.986Z,91.75
2022-09-29T01:51:30.294Z,92.35
2022-09-29T01:54:04.027Z,92.46
2022-09-29T01:56:37.397Z,92.26
2022-09-29T01:59:11.702Z,91.44
2022-09-29T02:01:44.672Z,91.18
2022-09-29T02:04:19.236Z,90.97
2022-09-29T02:06:53.289Z,90.45
2022-09-29T02:09:26.925Z,91.10
2022-09-29T02:11:58.015Z,92.19
2022-09-29T02:14:30.346Z,92.07
2022-09-29T02:17:05.065Z,91.50
2022-09-29T02:19:37.711Z,91.07
2022-09-29T02:22:05.777Z,90.56
2022-09-29T02:24:33.787Z,90.76
2022-09-29T02:27:03.583Z,90.51
2022-09-29T02:29:33.213Z,90.20
2022-09-29T02:32:03.021Z,90.20
2022-09-29T02:34:36.853Z,89.93
2022-09-29T02:37:15.373Z,89.83
2022-09-29T02:39:49.788Z,89.98
2022-09-29T02:42:26.309Z,89.99
2022-09-29T02:45:12.992Z,90.11
2022-09-29T02:47:58.691Z,89.81
2022-09-29T02:50:50.317Z,89.60
2022-09-29T02:53:26.313Z,89.73
2022-09-29T02:56:01.235Z,89.34
2022-09-29T02:58:34.323Z,89.18
2022-09-29T03:01:02.525Z,89.62
2022-09-29T03:03:30.767Z,89.52
2022-09-29T03:06:00.359Z,89.73
2022-09-29T03:08:30.429Z,90.08
2022-09-29T03:10:59.091Z,90.28
2022-09-29T03:13:27.231Z,90.89
2022-09-29T03:15:55.395Z,91.01
2022-09-29T03:18:24.554Z,91.58
2022-09-29T03:20:55.100Z,91.58
2022-09-29T03:23:24.488Z,91.56
2022-09-29T03:25:52.769Z,91.25
2022-09-29T03:28:20.822Z,91.14
2022-09-29T03:30:49.255Z,90.88
2022-09-29T03:33:18.613Z,90.42
2022-09-29T03:35:46.711Z,90.12
2022-09-29T03:38:14.655Z,89.98
2022-09-29T03:40:44.119Z,89.79
2022-09-29T03:43:12.154Z,89.72
2022-09-29T03:45:48.627Z,89.62
2022-09-29T03:48:16.832Z,89.84
2022-09-29T03:50:46.303Z,89.95
2022-09-29T03:53:14.315Z,90.16
2022-09-29T03:55:47.623Z,90.43
2022-09-29T03:58:16.154Z,90.33
2022-09-29T04:00:44.250Z,90.26
2022-09-29T04:03:12.315Z,90.00
2022-09-29T04:05:43.210Z,89.88
2022-09-29T04:08:11.291Z,89.68
2022-09-29T04:10:40.130Z,89.46
2022-09-29T04:13:10.322Z,89.60
2022-09-29T04:15:38.429Z,89.91
2022-09-29T04:18:07.194Z,90.15
2022-09-29T04:20:35.361Z,90.28
2022-09-29T04:23:03.400Z,90.57
2022-09-29T04:25:31.451Z,90.44
2022-09-29T04:27:59.536Z,90.25
2022-09-29T04:30:28.968Z,90.58
2022-09-29T04:32:57.043Z,90.52
2022-09-29T04:35:25.144Z,90.55
2022-09-29T04:37:57.260Z,90.55
2022-09-29T04:40:25.513Z,90.48
2022-09-29T04:42:53.747Z,90.52
2022-09-29T04:45:21.793Z,90.55
2022-09-29T04:47:51.275Z,90.67
2022-09-29T04:50:19.486Z,90.86
2022-09-29T04:52:47.680Z,91.24
2022-09-29T04:55:15.877Z,91.44
2022-09-29T04:57:47.292Z,91.23
2022-09-29T05:00:16.519Z,91.55
2022-09-29T05:02:49.523Z,91.31
2022-09-29T05:05:19.776Z,90.80
2022-09-29T05:07:51.933Z,90.25
2022-09-29T05:10:20.099Z,90.30
2022-09-29T05:12:51.521Z,90.15
2022-09-29T05:15:25.597Z,90.19
2022-09-29T05:17:54.324Z,91.02
2022-09-29T05:20:23.966Z,91.34
2022-09-29T05:22:52.125Z,91.73
2022-09-29T05:25:20.118Z,92.27
2022-09-29T05:27:49.322Z,92.04
2022-09-29T05:30:17.661Z,91.77
2022-09-29T05:32:46.155Z,92.14
2022-09-29T05:35:14.219Z,92.25
2022-09-29T05:37:43.718Z,91.72
2022-09-29T05:40:11.939Z,91.72
2022-09-29T05:42:41.066Z,91.92
2022-09-29T05:45:12.132Z,91.61
2022-09-29T05:47:43.502Z,92.16
2022-09-29T05:50:11.819Z,91.73
2022-09-29T05:52:39.957Z,92.08
2022-09-29T05:55:13.124Z,92.09
2022-09-29T05:57:41.153Z,92.46
2022-09-29T06:00:10.171Z,92.68
2022-09-29T06:02:42.082Z,92.43
2022-09-29T06:05:10.546Z,92.61
2022-09-29T06:07:38.522Z,92.44
2022-09-29T06:10:10.823Z,92.27
2022-09-29T06:12:39.235Z,92.41
2022-09-29T06:15:11.143Z,92.17
2022-09-29T06:17:40.487Z,92.04
2022-09-29T06:20:17.091Z,92.30
2022-09-29T06:22:45.066Z,91.88
2022-09-29T06:25:14.682Z,92.22
2022-09-29T06:27:42.728Z,91.87
2022-09-29T06:30:13.299Z,92.20
2022-09-29T06:32:41.522Z,92.35
2022-09-29T06:35:27.478Z,92.36
2022-09-29T06:37:56.667Z,91.63
2022-09-29T06:40:27.490Z,91.51
2022-09-29T06:42:55.946Z,91.75
2022-09-29T06:45:28.036Z,90.91
2022-09-29T06:48:00.041Z,90.75
2022-09-29T06:50:28.248Z,90.55
2022-09-29T06:53:03.829Z,90.60
2022-09-29T06:55:34.032Z,92.10
2022-09-29T06:58:04.296Z,91.13
2022-09-29T07:00:33.689Z,91.29
2022-09-29T07:03:01.825Z,90.22
2022-09-29T07:05:29.925Z,89.70
2022-09-29T07:08:01.075Z,89.83
2022-09-29T07:10:29.578Z,89.78
2022-09-29T07:13:00.018Z,89.51
2022-09-29T07:15:32.015Z,89.50
2022-09-29T07:18:01.183Z,88.94
2022-09-29T07:20:31.508Z,89.16
2022-09-29T07:23:01.717Z,89.39
2022-09-29T07:25:50.605Z,87.94
2022-09-29T07:28:21.379Z,87.79
2022-09-29T07:31:10.236Z,88.07
2022-09-29T07:33:48.017Z,89.52
2022-09-29T07:36:18.026Z,88.19
2022-09-29T07:38:47.699Z,89.29
2022-09-29T07:41:19.771Z,88.22
2022-09-29T07:43:53.679Z,88.06
2022-09-29T07:46:23.029Z,87.54
2022-09-29T07:48:51.267Z,88.18
2022-09-29T07:51:21.199Z,89.43
2022-09-29T07:53:50.419Z,87.33
2022-09-29T07:56:21.311Z,86.79
2022-09-29T07:58:51.404Z,86.24
2022-09-29T08:01:21.242Z,86.01
2022-09-29T08:03:51.970Z,87.62
2022-09-29T08:06:20.508Z,86.89
2022-09-29T08:09:00.900Z,85.15
2022-09-29T08:11:32.667Z,86.96
2022-09-29T08:14:03.163Z,88.19
2022-09-29T08:16:33.282Z,86.15
2022-09-29T08:19:01.656Z,85.90
2022-09-29T08:21:31.744Z,84.70
2022-09-29T08:24:00.579Z,86.29
2022-09-29T08:26:40.043Z,83.11
2022-09-29T08:29:15.725Z,85.39
2022-09-29T08:31:47.110Z,84.33
2022-09-29T08:34:16.235Z,84.68
2022-09-29T08:36:44.713Z,84.45
2022-09-29T08:39:13.437Z,83.65
2022-09-29T08:41:53.480Z,85.78
2022-09-29T08:44:37.602Z,85.07
2022-09-29T08:47:17.425Z,85.62
2022-09-29T08:49:51.193Z,85.62
2022-09-29T08:52:23.256Z,85.63
2022-09-29T08:54:58.784Z,85.68
2022-09-29T08:57:27.705Z,83.96
2022-09-29T09:00:00.678Z,85.12
2022-09-29T09:02:56.891Z,85.25
2022-09-29T09:05:50.706Z,83.91
2022-09-29T09:08:37.182Z,83.59
2022-09-29T09:11:18.075Z,84.17
2022-09-29T09:13:59.353Z,85.37
2022-09-29T09:16:38.633Z,83.16
2022-09-29T09:19:40.777Z,82.51
2022-09-29T09:22:21.793Z,84.05
2022-09-29T09:24:57.560Z,84.28
2022-09-29T09:27:27.298Z,82.69
2022-09-29T09:30:04.833Z,79.95
2022-09-29T09:32:38.073Z,79.91
2022-09-29T09:35:24.209Z,82.47
2022-09-29T09:37:54.042Z,78.97
2022-09-29T09:40:25.310Z,79.33
2022-09-29T09:42:59.493Z,78.80
2022-09-29T09:45:32.501Z,77.25
2022-09-29T09:48:06.355Z,78.03
2022-09-29T09:50:39.807Z,78.29
2022-09-29T09:53:16.315Z,78.45
2022-09-29T09:55:44.719Z,76.62
2022-09-29T09:58:28.478Z,75.09
2022-09-29T10:00:59.596Z,78.18
2022-09-29T10:03:29.194Z,79.84
2022-09-29T10:05:59.402Z,77.58
2022-09-29T10:08:29.756Z,75.26
2022-09-29T10:10:59.832Z,75.68
2022-09-29T10:13:29.910Z,75.00
2022-09-29T10:16:02.750Z,75.82
2022-09-29T10:18:33.452Z,76.66
2022-09-29T10:21:03.029Z,78.71
2022-09-29T10:23:33.421Z,75.21
2022-09-29T10:26:08.699Z,78.89
2022-09-29T10:28:43.915Z,75.87
2022-09-29T10:31:21.675Z,77.51
2022-09-29T10:33:57.570Z,75.22
2022-09-29T10:36:28.611Z,75.85
2022-09-29T10:39:00.864Z,74.62
2022-09-29T10:41:31.699Z,74.66
2022-09-29T10:44:21.751Z,75.00
2022-09-29T10:46:54.476Z,75.73
2022-09-29T10:49:23.975Z,75.78
2022-09-29T10:52:44.723Z,76.31
2022-09-29T10:55:20.657Z,75.61
2022-09-29T10:57:49.453Z,76.02
2022-09-29T11:00:29.120Z,75.90
2022-09-29T11:03:06.147Z,76.72
2022-09-29T11:05:34.725Z,74.36
2022-09-29T11:08:04.352Z,76.43
2022-09-29T11:10:36.923Z,72.45
2022-09-29T11:13:36.713Z,73.88
2022-09-29T11:16:07.038Z,72.61
2022-09-29T11:18:37.884Z,71.52
2022-09-29T11:21:29.330Z,73.07
2022-09-29T11:24:02.841Z,70.84
2022-09-29T11:26:40.801Z,70.52
2022-09-29T11:29:31.097Z,72.78
2022-09-29T11:32:14.952Z,73.13
2022-09-29T11:35:06.085Z,73.70
2022-09-29T11:37:47.735Z,74.33
2022-09-29T11:40:25.382Z,73.22
2022-09-29T11:43:08.082Z,74.33
2022-09-29T11:45:43.349Z,73.77
2022-09-29T11:48:34.866Z,71.26
2022-09-29T11:51:12.299Z,71.31
2022-09-29T11:53:51.453Z,72.04
2022-09-29T11:56:32.024Z,72.78
2022-09-29T11:59:18.159Z,72.51
2022-09-29T12:02:01.783Z,74.06
2022-09-29T12:04:40.467Z,75.46
2022-09-29T12:07:22.625Z,75.89
2022-09-29T12:10:18.757Z,77.15
2022-09-29T12:12:55.392Z,76.06
2022-09-29T12:15:38.691Z,77.60
2022-09-29T12:18:15.303Z,79.74
2022-09-29T12:20:46.202Z,77.30
2022-09-29T12:23:23.424Z,76.51
2022-09-29T12:25:57.600Z,77.48
2022-09-29T12:28:31.375Z,76.83
2022-09-29T12:31:04.101Z,77.69
2022-09-29T12:33:38.192Z,76.28
2022-09-29T12:36:34.765Z,76.84
2022-09-29T12:39:10.135Z,76.05
2022-09-29T12:41:42.482Z,76.74
2022-09-29T12:44:17.777Z,77.22
2022-09-29T12:46:53.600Z,75.81
2022-09-29T12:49:27.928Z,73.73
2022-09-29T12:51:58.572Z,76.68
2022-09-29T12:54:32.696Z,72.84
2022-09-29T12:57:04.938Z,73.63
2022-09-29T12:59:39.161Z,75.37
2022-09-29T13:02:35.174Z,74.64
2022-09-29T13:05:22.448Z,74.11
2022-09-29T13:08:23.017Z,71.62
2022-09-29T13:11:12.762Z,72.69
2022-09-29T13:14:06.974Z,74.43
2022-09-29T13:16:44.999Z,73.44
2022-09-29T13:19:58.855Z,73.44
2022-09-29T13:23:11.680Z,73.30
2022-09-29T13:25:49.369Z,72.68
2022-09-29T13:28:27.467Z,73.56
2022-09-29T13:31:00.617Z,72.96
2022-09-29T13:33:29.098Z,72.27
2022-09-29T13:35:59.216Z,73.51
2022-09-29T13:38:29.988Z,72.56
2022-09-29T13:41:13.842Z,72.66
2022-09-29T13:44:06.521Z,74.06
2022-09-29T13:46:40.149Z,72.65
2022-09-29T13:49:17.612Z,73.77
2022-09-29T13:51:50.103Z,73.85
2022-09-29T13:54:30.727Z,75.57
2022-09-29T13:57:26.982Z,75.86
2022-09-29T14:00:29.235Z,74.30
2022-09-29T14:03:23.576Z,74.65
2022-09-29T14:05:57.617Z,74.25
2022-09-29T14:08:37.418Z,73.77
2022-09-29T14:11:19.787Z,74.54
2022-09-29T14:13:56.600Z,73.89
2022-09-29T14:16:41.395Z,74.09
2022-09-29T14:19:26.570Z,73.93
2022-09-29T14:21:56.413Z,75.09
2022-09-29T14:24:49.655Z,75.51
2022-09-29T14:27:32.256Z,71.87
2022-09-29T14:30:16.587Z,72.38
2022-09-29T14:32:52.984Z,73.22
2022-09-29T14:35:27.394Z,71.72
2022-09-29T14:38:04.787Z,73.17
2022-09-29T14:40:38.295Z,73.49
2022-09-29T14:43:18.130Z,72.93
2022-09-29T14:46:34.606Z,73.16
2022-09-29T14:49:42.494Z,70.48
2022-09-29T14:52:19.993Z,70.36
2022-09-29T14:55:05.167Z,70.42
2022-09-29T14:58:05.924Z,69.93
2022-09-29T15:00:50.826Z,71.59
2022-09-29T15:03:28.950Z,71.51
2022-09-29T15:06:12.096Z,72.36
2022-09-29T15:08:41.823Z,71.48
2022-09-29T15:11:35.127Z,70.02
2022-09-29T15:14:03.589Z,70.75
2022-09-29T15:16:52.773Z,72.04
2022-09-29T15:19:35.738Z,71.69
2022-09-29T15:22:31.001Z,72.20
2022-09-29T15:25:11.719Z,71.78
2022-09-29T15:27:41.492Z,71.10
2022-09-29T15:30:16.927Z,71.46
2022-09-29T15:32:51.271Z,72.94
2022-09-29T15:35:23.949Z,73.68
2022-09-29T15:38:17.476Z,72.88
2022-09-29T15:41:39.870Z,72.00
2022-09-29T15:44:18.720Z,70.59
2022-09-29T15:46:50.608Z,72.47
2022-09-29T15:49:22.131Z,72.93
2022-09-29T15:52:00.720Z,74.10
2022-09-29T15:54:35.120Z,73.96
2022-09-29T15:57:22.996Z,70.18
2022-09-29T15:59:54.853Z,72.28
2022-09-29T16:02:29.674Z,71.94
2022-09-29T16:05:02.345Z,72.76
2022-09-29T16:07:34.655Z,73.69
2022-09-29T16:10:09.282Z,74.16
2022-09-29T16:12:41.902Z,74.44
2022-09-29T16:15:17.684Z,75.49
2022-09-29T16:17:48.786Z,75.09
2022-09-29T16:20:24.470Z,74.92
2022-09-29T16:23:17.733Z,73.83
2022-09-29T16:25:47.074Z,74.52
2022-09-29T16:28:29.673Z,74.58
2022-09-29T16:31:03.864Z,74.02
2022-09-29T16:33:35.048Z,75.39
2022-09-29T16:36:13.731Z,77.16
2022-09-29T16:38:45.602Z,77.21
2022-09-29T16:41:27.850Z,77.10
2022-09-29T16:44:06.979Z,77.71
2022-09-29T16:46:47.935Z,78.24
2022-09-29T16:49:46.465Z,79.18
2022-09-29T16:52:23.222Z,79.26
2022-09-29T16:54:54.130Z,79.68
2022-09-29T16:57:27.712Z,80.63
2022-09-29T16:59:58.490Z,80.52
2022-09-29T17:02:28.932Z,80.86
2022-09-29T17:04:58.972Z,79.19
2022-09-29T17:07:30.591Z,79.71
2022-09-29T17:10:00.656Z,81.00
2022-09-29T17:12:58.158Z,82.03
2022-09-29T17:15:27.062Z,82.08
2022-09-29T17:17:57.176Z,81.90
2022-09-29T17:20:30.325Z,81.96
2022-09-29T17:23:01.421Z,82.39
2022-09-29T17:25:30.562Z,80.62
2022-09-29T17:28:13.025Z,80.07
2022-09-29T17:30:42.227Z,80.80
2022-09-29T17:33:15.347Z,80.58
2022-09-29T17:35:55.101Z,80.32
2022-09-29T17:38:27.928Z,80.92
2022-09-29T17:40:58.772Z,81.75
2022-09-29T17:43:26.861Z,83.72
2022-09-29T17:45:57.354Z,83.98
2022-09-29T17:48:27.802Z,82.78
2022-09-29T17:50:59.472Z,82.09
2022-09-29T17:53:32.185Z,81.16
2022-09-29T17:56:00.355Z,80.96
2022-09-29T17:58:34.665Z,81.62
2022-09-29T18:01:03.064Z,81.90
2022-09-29T18:03:31.268Z,82.47
2022-09-29T18:06:00.125Z,82.16
2022-09-29T18:08:31.257Z,82.72
2022-09-29T18:11:01.420Z,81.99
2022-09-29T18:13:31.588Z,81.51
2022-09-29T18:16:00.971Z,81.31
2022-09-29T18:18:29.513Z,81.93
2022-09-29T18:20:58.994Z,81.42
2022-09-29T18:23:27.461Z,80.98
2022-09-29T18:25:57.431Z,81.35
2022-09-29T18:28:25.633Z,81.47
2022-09-29T18:30:59.246Z,82.02
2022-09-29T18:33:28.917Z,84.03
2022-09-29T18:35:57.235Z,83.63
2022-09-29T18:38:25.471Z,83.34
2022-09-29T18:41:00.146Z,83.76
2022-09-29T18:43:29.427Z,83.87
2022-09-29T18:45:58.335Z,83.23
2022-09-29T18:48:26.480Z,83.77
2022-09-29T18:50:55.229Z,85.52
2022-09-29T18:53:24.441Z,85.15
2022-09-29T18:56:03.401Z,84.94
2022-09-29T18:58:32.468Z,84.55
2022-09-29T19:01:02.655Z,84.44
2022-09-29T19:03:32.046Z,83.82
2022-09-29T19:06:02.710Z,83.84
2022-09-29T19:08:33.920Z,84.30
2022-09-29T19:11:04.851Z,83.64
2022-09-29T19:13:42.019Z,83.57
2022-09-29T19:16:10.636Z,84.08
2022-09-29T19:18:38.868Z,85.30
2022-09-29T19:21:12.166Z,85.23
2022-09-29T19:23:42.637Z,85.35
2022-09-29T19:26:15.043Z,85.99
2022-09-29T19:28:43.520Z,87.46
2022-09-29T19:31:15.242Z,88.15
2022-09-29T19:33:45.903Z,87.43
2022-09-29T19:36:17.834Z,86.72
2022-09-29T19:38:47.335Z,86.65
2022-09-29T19:41:20.298Z,87.02
2022-09-29T19:43:49.274Z,88.37
2022-09-29T19:46:18.741Z,88.81
2022-09-29T19:48:49.062Z,88.88
2022-09-29T19:51:36.623Z,87.93
2022-09-29T19:54:14.907Z,87.72
2022-09-29T19:56:48.503Z,87.48
2022-09-29T19:59:20.375Z,87.07
2022-09-29T20:01:52.896Z,87.24
2022-09-29T20:04:28.672Z,86.76
2022-09-29T20:06:58.163Z,88.43
2022-09-29T20:09:27.931Z,89.22
2022-09-29T20:11:58.403Z,89.30
2022-09-29T20:14:28.724Z,88.76
2022-09-29T20:16:59.315Z,88.02
2022-09-29T20:19:32.248Z,88.00
2022-09-29T20:22:31.505Z,87.88
2022-09-29T20:24:59.722Z,87.75
2022-09-29T20:27:29.253Z,88.24
2022-09-29T20:29:57.464Z,88.72
2022-09-29T20:32:51.742Z,88.96
2022-09-29T20:35:19.806Z,88.96
2022-09-29T20:37:51.213Z,89.87
2022-09-29T20:40:44.062Z,89.74
2022-09-29T20:43:34.850Z,89.00
2022-09-29T20:50:30.714Z,91.03
2022-09-29T20:53:05.602Z,91.45
2022-09-29T20:56:31.642Z,91.67
2022-09-29T20:59:55.740Z,91.40
2022-09-29T21:03:32.733Z,91.14
2022-09-29T21:10:28.000Z,92.12
2022-09-29T21:13:05.021Z,92.51
2022-09-29T21:15:59.305Z,92.01
2022-09-29T21:18:30.258Z,91.59
2022-09-29T21:21:49.432Z,90.92
2022-09-29T21:24:17.645Z,90.57
2022-09-29T21:27:02.022Z,90.57
2022-09-29T21:29:32.158Z,90.69
2022-09-29T21:32:00.289Z,90.87
2022-09-29T21:34:28.545Z,90.66
2022-09-29T21:36:56.876Z,90.31
2022-09-29T21:39:25.305Z,90.33
2022-09-29T21:41:53.320Z,89.94
2022-09-29T21:44:24.424Z,90.26
2022-09-29T21:46:53.359Z,90.44
2022-09-29T21:49:22.045Z,90.77
2022-09-29T21:51:51.461Z,91.08
2022-09-29T21:54:21.113Z,91.51
2022-09-29T21:56:50.494Z,92.04
2022-09-29T21:59:19.725Z,92.16
2022-09-29T22:01:50.050Z,91.86
2022-09-29T22:04:18.471Z,91.49
2022-09-29T22:06:47.082Z,91.26
2022-09-29T22:09:19.862Z,90.86
2022-09-29T22:11:50.486Z,91.14
2022-09-29T22:14:19.608Z,92.46
2022-09-29T22:16:49.257Z,93.07
2022-09-29T22:19:32.781Z,93.53
2022-09-29T22:22:03.055Z,93.58
2022-09-29T22:24:31.222Z,93.71
2022-09-29T22:26:59.299Z,93.36
2022-09-29T22:29:27.565Z,93.06
2022-09-29T22:31:57.045Z,93.36
2022-09-29T22:34:27.183Z,92.93
2022-09-29T22:36:55.320Z,93.24
2022-09-29T22:39:24.404Z,93.87
2022-09-29T22:41:53.252Z,93.72
2022-09-29T22:44:27.324Z,93.55
2022-09-29T22:46:57.139Z,93.39
2022-09-29T22:49:25.500Z,93.06
2022-09-29T22:51:53.463Z,93.44
2022-09-29T22:54:21.472Z,93.05
2022-09-29T22:56:49.671Z,93.12
2022-09-29T22:59:18.846Z,93.35
2022-09-29T23:01:49.294Z,93.49
2022-09-29T23:04:25.060Z,93.84
2022-09-29T23:06:53.446Z,93.73
2022-09-29T23:09:21.695Z,93.28
2022-09-29T23:11:50.339Z,92.52
2022-09-29T23:14:18.467Z,91.81
2022-09-29T23:16:46.437Z,91.51
2022-09-29T23:19:14.937Z,91.83
2022-09-29T23:21:44.373Z,92.34
2022-09-29T23:24:16.411Z,92.18
2022-09-29T23:26:46.248Z,92.13
2022-09-29T23:29:14.389Z,91.57
2022-09-29T23:31:48.741Z,91.17
2022-09-29T23:34:17.953Z,91.84
2022-09-29T23:36:47.396Z,91.61
2022-09-29T23:39:14.601Z,91.50
2022-09-29T23:41:44.732Z,91.42
2022-09-29T23:44:14.112Z,91.39
2022-09-29T23:46:43.242Z,91.34
2022-09-29T23:49:13.161Z,91.30
2022-09-29T23:51:42.883Z,91.12
2022-09-29T23:54:15.611Z,91.35
2022-09-29T23:56:43.924Z,91.61
2022-09-29T23:59:11.948Z,91.29
